createdAt,value
2018-03-30T03:00:03.842Z,1.20
2018-03-30T03:02:31.310Z,1.33
2018-03-30T03:04:58.775Z,1.58
2018-03-30T03:07:26.232Z,1.67
2018-03-30T03:09:53.685Z,1.62
2018-03-30T03:12:21.137Z,1.80
2018-03-30T03:14:48.629Z,1.25
2018-03-30T03:17:16.094Z,1.75
2018-03-30T03:19:43.573Z,2.10
2018-03-30T03:22:11.038Z,1.50
2018-03-30T03:24:38.519Z,1.45
2018-03-30T03:27:05.961Z,1.50
2018-03-30T03:29:33.417Z,1.92
2018-03-30T03:32:01.453Z,1.65
2018-03-30T03:34:28.931Z,1.85
2018-03-30T03:36:56.372Z,1.55
2018-03-30T03:39:23.877Z,2.50
2018-03-30T03:41:51.332Z,1.60
2018-03-30T03:44:18.809Z,1.55
2018-03-30T03:46:46.346Z,1.17
2018-03-30T03:49:14.744Z,1.45
2018-03-30T03:51:42.221Z,1.23
2018-03-30T03:54:09.784Z,1.25
2018-03-30T03:56:40.683Z,1.10
2018-03-30T03:59:08.726Z,1.20
2018-03-30T04:01:36.195Z,1.10
2018-03-30T04:04:03.657Z,1.58
2018-03-30T04:06:31.130Z,0.80
2018-03-30T04:08:58.614Z,1.25
2018-03-30T04:11:28.020Z,0.82
2018-03-30T04:13:55.499Z,1.25
2018-03-30T04:16:23.870Z,1.10
2018-03-30T04:18:51.329Z,1.05
2018-03-30T04:21:18.793Z,1.23
2018-03-30T04:23:46.259Z,1.37
2018-03-30T04:26:13.720Z,1.00
2018-03-30T04:28:41.970Z,1.10
2018-03-30T04:31:10.422Z,1.17
2018-03-30T04:33:38.796Z,1.20
2018-03-30T04:36:06.274Z,1.30
2018-03-30T04:38:33.760Z,2.22
2018-03-30T04:41:01.220Z,1.05
2018-03-30T04:43:28.755Z,1.08
2018-03-30T04:45:57.346Z,1.23
2018-03-30T04:48:24.899Z,1.40
2018-03-30T04:50:53.332Z,1.40
2018-03-30T04:53:20.855Z,1.45
2018-03-30T04:55:48.339Z,1.05
2018-03-30T04:58:16.698Z,1.27
2018-03-30T05:00:44.182Z,1.10
2018-03-30T05:03:12.554Z,1.77
2018-03-30T05:05:40.014Z,1.40
2018-03-30T05:08:07.490Z,0.80
2018-03-30T05:10:34.999Z,1.20
2018-03-30T05:13:02.813Z,1.15
2018-03-30T05:15:30.370Z,1.37
2018-03-30T05:17:57.849Z,1.33
2018-03-30T05:20:25.389Z,1.40
2018-03-30T05:22:52.870Z,1.10
2018-03-30T05:25:21.327Z,1.30
2018-03-30T05:27:49.724Z,1.48
2018-03-30T05:30:17.249Z,1.48
2018-03-30T05:32:44.750Z,1.58
2018-03-30T05:35:12.250Z,1.60
2018-03-30T05:37:40.220Z,1.85
2018-03-30T05:40:07.675Z,1.40
2018-03-30T05:42:35.140Z,1.45
2018-03-30T05:45:02.920Z,1.55
2018-03-30T05:47:30.408Z,1.67
2018-03-30T05:49:57.857Z,1.80
2018-03-30T05:52:25.752Z,2.62
2018-03-30T05:54:53.234Z,3.10
2018-03-30T05:57:20.688Z,2.83
2018-03-30T05:59:49.003Z,2.75
2018-03-30T06:02:16.480Z,2.87
2018-03-30T06:04:43.943Z,2.97
2018-03-30T06:07:11.412Z,2.78
2018-03-30T06:09:39.794Z,3.12
2018-03-30T06:12:07.241Z,3.83
2018-03-30T06:14:34.698Z,3.95
2018-03-30T06:17:02.170Z,4.20
2018-03-30T06:19:31.335Z,4.70
2018-03-30T06:21:58.809Z,3.30
2018-03-30T06:24:26.456Z,2.95
2018-03-30T06:26:54.646Z,2.35
2018-03-30T06:29:22.465Z,2.10
2018-03-30T06:31:50.272Z,1.10
2018-03-30T06:51:35.190Z,1.15
2018-03-30T06:54:03.056Z,1.55
2018-03-30T06:56:30.955Z,1.33
2018-03-30T06:58:58.877Z,1.77
2018-03-30T07:01:26.650Z,2.50
2018-03-30T07:03:54.872Z,1.98
2018-03-30T07:06:22.563Z,2.03
2018-03-30T07:08:50.364Z,1.50
2018-03-30T07:11:18.658Z,1.95
2018-03-30T07:13:47.111Z,2.17
2018-03-30T07:16:15.524Z,1.83
2018-03-30T07:18:43.629Z,2.08
2018-03-30T07:21:11.311Z,1.55
2018-03-30T07:23:39.039Z,1.70
2018-03-30T07:26:12.839Z,1.70
2018-03-30T07:28:40.412Z,1.62
2018-03-30T07:31:08.057Z,1.42
2018-03-30T07:33:35.709Z,2.00
2018-03-30T07:36:04.302Z,1.20
2018-03-30T07:38:31.972Z,1.12
2018-03-30T07:40:59.463Z,1.05
2018-03-30T07:43:27.014Z,1.00
2018-03-30T07:45:54.787Z,0.80
2018-03-30T07:48:22.418Z,1.00
2018-03-30T07:50:50.073Z,1.08
2018-03-30T07:53:17.674Z,0.90
2018-03-30T08:13:01.919Z,0.70
2018-03-30T08:15:29.512Z,1.10
2018-03-30T08:17:57.479Z,0.83
2018-03-30T08:20:25.031Z,0.80
2018-03-30T08:22:52.612Z,0.80
2018-03-30T08:42:39.210Z,0.60
2018-03-30T08:45:08.208Z,0.70
2018-03-30T08:47:36.399Z,0.60
2018-03-30T08:50:03.951Z,0.70
2018-03-30T08:52:32.040Z,0.50
2018-03-30T08:55:00.696Z,0.70
2018-03-30T08:57:28.316Z,0.50
2018-03-30T09:00:03.358Z,0.87
2018-03-30T09:02:32.772Z,0.60
2018-03-30T09:05:03.021Z,0.67
2018-03-30T09:07:32.950Z,0.70
2018-03-30T09:10:01.052Z,0.60
2018-03-30T09:12:29.331Z,0.70
2018-03-30T09:14:56.832Z,0.70
2018-03-30T09:34:41.521Z,1.10
2018-03-30T09:37:10.121Z,0.83
2018-03-30T09:39:37.655Z,1.03
2018-03-30T09:42:05.205Z,1.07
2018-03-30T09:47:04.888Z,1.40
2018-03-30T09:49:32.695Z,0.93
2018-03-30T09:52:06.102Z,0.83
2018-03-30T09:54:37.764Z,1.10
2018-03-30T09:57:06.206Z,1.10
2018-03-30T09:59:35.459Z,1.07
2018-03-30T10:02:03.061Z,1.17
2018-03-30T10:04:30.615Z,1.00
2018-03-30T10:06:58.705Z,1.77
2018-03-30T10:09:26.750Z,1.60
2018-03-30T10:11:54.261Z,1.17
2018-03-30T10:14:22.130Z,1.00
2018-03-30T10:16:50.680Z,1.17
2018-03-30T10:19:19.486Z,1.10
2018-03-30T10:21:53.844Z,1.20
2018-03-30T10:24:22.774Z,1.00
2018-03-30T10:26:50.457Z,1.40
2018-03-30T10:29:18.606Z,1.37
2018-03-30T10:31:47.356Z,1.20
2018-03-30T10:34:14.924Z,1.13
2018-03-30T10:36:42.442Z,3.03
2018-03-30T10:39:09.956Z,1.40
2018-03-30T10:41:37.524Z,1.37
2018-03-30T10:44:05.080Z,1.10
2018-03-30T10:46:32.571Z,1.17
2018-03-30T10:49:00.116Z,1.03
2018-03-30T10:51:27.653Z,1.30
2018-03-30T10:53:55.153Z,1.40
2018-03-30T10:56:22.674Z,1.40
2018-03-30T10:58:50.165Z,1.13
2018-03-30T11:01:17.714Z,1.10
2018-03-30T11:03:45.252Z,0.93
2018-03-30T11:06:12.824Z,0.80
2018-03-30T11:08:42.025Z,0.70
2018-03-30T11:11:09.586Z,0.80
2018-03-30T11:13:37.125Z,0.97
2018-03-30T11:16:04.806Z,0.60
2018-03-30T11:18:32.358Z,0.67
2018-03-30T11:38:17.303Z,0.50
2018-03-30T11:40:44.846Z,0.60
2018-03-30T11:43:12.356Z,0.80
2018-03-30T11:45:39.929Z,0.60
2018-03-30T11:48:08.233Z,0.60
2018-03-30T11:50:35.773Z,0.60
2018-03-30T11:53:03.299Z,0.57
2018-03-30T11:55:30.852Z,0.50
2018-03-30T11:57:58.427Z,0.60
2018-03-30T12:00:25.987Z,0.90
2018-03-30T12:02:53.563Z,0.60
2018-03-30T12:05:21.297Z,0.80
2018-03-30T12:07:48.832Z,0.50
2018-03-30T12:10:16.612Z,0.63
2018-03-30T12:12:44.199Z,0.50
2018-03-30T12:15:11.780Z,0.80
2018-03-30T12:17:39.305Z,0.50
2018-03-30T12:20:06.982Z,0.60
2018-03-30T12:22:34.515Z,0.70
2018-03-30T12:25:02.035Z,0.70
2018-03-30T12:27:30.246Z,0.50
2018-03-30T12:29:58.253Z,0.80
2018-03-30T12:32:25.774Z,0.70
2018-03-30T12:34:53.302Z,0.90
2018-03-30T12:37:20.862Z,0.70
2018-03-30T12:39:48.360Z,0.80
2018-03-30T12:42:15.959Z,0.70
2018-03-30T12:44:43.565Z,0.60
2018-03-30T12:47:11.119Z,0.63
2018-03-30T12:49:38.993Z,0.50
2018-03-30T12:52:06.629Z,0.60
2018-03-30T12:54:34.221Z,1.10
2018-03-30T12:57:02.029Z,1.00
2018-03-30T12:59:29.725Z,0.80
2018-03-30T13:01:57.311Z,0.80
2018-03-30T13:04:24.964Z,1.30
2018-03-30T13:06:53.351Z,1.10
2018-03-30T13:09:20.911Z,1.23
2018-03-30T13:11:49.285Z,1.43
2018-03-30T13:14:17.741Z,1.23
2018-03-30T13:16:45.417Z,1.33
2018-03-30T13:19:13.328Z,1.30
2018-03-30T13:21:42.228Z,1.67
2018-03-30T13:24:09.794Z,1.50
2018-03-30T13:26:37.855Z,1.00
2018-03-30T13:29:05.904Z,1.93
2018-03-30T13:31:34.216Z,1.67
2018-03-30T13:34:01.792Z,1.73
2018-03-30T13:36:29.353Z,1.70
2018-03-30T13:38:56.866Z,1.77
2018-03-30T13:41:24.629Z,1.60
2018-03-30T13:43:52.164Z,1.70
2018-03-30T13:46:19.687Z,1.80
2018-03-30T13:48:47.250Z,1.50
2018-03-30T13:54:13.659Z,1.67
2018-03-30T13:56:48.833Z,1.50
2018-03-30T13:59:18.052Z,1.77
2018-03-30T14:04:47.532Z,1.60
2018-03-30T14:40:47.968Z,1.77
2018-03-30T14:43:23.173Z,2.23
2018-03-30T14:45:51.629Z,2.20
2018-03-30T14:51:21.416Z,1.77
2018-03-30T14:53:55.537Z,1.80
2018-03-30T14:56:49.687Z,2.30
2018-03-30T14:59:17.887Z,2.13
2018-03-30T15:02:06.772Z,2.20
2018-03-30T15:04:39.165Z,2.10
2018-03-30T15:07:07.577Z,2.07
2018-03-30T15:09:39.877Z,2.23
2018-03-30T15:12:23.448Z,2.00
2018-03-30T15:14:53.874Z,1.87
2018-03-30T15:17:26.113Z,2.30
2018-03-30T15:19:58.354Z,2.03
2018-03-30T15:25:33.031Z,2.03
2018-03-30T15:28:02.120Z,1.90
2018-03-30T15:30:33.427Z,1.40
2018-03-30T15:33:26.874Z,1.60
2018-03-30T15:35:57.329Z,1.30
2018-03-30T15:38:24.889Z,1.50
2018-03-30T15:40:52.451Z,1.23
2018-03-30T15:43:23.351Z,1.33
2018-03-30T15:45:58.487Z,1.03
2018-03-30T15:48:26.992Z,1.30
2018-03-30T15:50:54.480Z,1.80
2018-03-30T15:53:21.498Z,1.80
2018-03-30T15:55:49.019Z,1.40
2018-03-30T15:58:16.518Z,1.20
2018-03-30T16:00:43.999Z,1.43
2018-03-30T16:03:12.305Z,1.80
2018-03-30T16:05:39.822Z,1.80
2018-03-30T16:08:07.335Z,1.10
2018-03-30T16:10:37.697Z,1.20
2018-03-30T16:13:05.356Z,1.10
2018-03-30T16:15:33.721Z,1.40
2018-03-30T16:18:01.258Z,1.17
2018-03-30T16:20:28.336Z,1.10
2018-03-30T16:22:55.372Z,2.50
2018-03-30T16:25:22.383Z,1.20
2018-03-30T16:27:49.419Z,1.40
2018-03-30T16:30:16.466Z,1.87
2018-03-30T16:32:43.467Z,1.40
2018-03-30T16:35:10.485Z,1.50
2018-03-30T16:37:37.563Z,1.23
2018-03-30T16:42:57.378Z,1.30
2018-03-30T16:48:14.443Z,1.40
2018-03-30T16:50:41.553Z,1.50
2018-03-30T16:53:08.752Z,1.47
